createdAt,value
2023-05-09T00:00:36.552Z,12.6
2023-05-09T00:01:43.602Z,12.6
2023-05-09T00:02:50.733Z,12.6
2023-05-09T00:03:57.910Z,12.6
2023-05-09T00:05:04.980Z,12.6
2023-05-09T00:06:11.474Z,12.5
2023-05-09T00:07:18.662Z,12.5
2023-05-09T00:08:25.732Z,12.5
2023-05-09T00:09:32.811Z,12.5
2023-05-09T00:10:39.960Z,12.5
2023-05-09T00:11:46.551Z,12.5
2023-05-09T00:12:53.746Z,12.5
2023-05-09T00:14:00.687Z,12.5
2023-05-09T00:15:07.860Z,12.5
2023-05-09T00:16:14.973Z,12.5
2023-05-09T00:17:22.125Z,12.5
2023-05-09T00:18:28.594Z,12.5
2023-05-09T00:20:42.808Z,12.5
2023-05-09T00:21:49.930Z,12.5
2023-05-09T00:22:56.534Z,12.5
2023-05-09T00:24:03.617Z,12.5
2023-05-09T00:25:10.736Z,12.5
2023-05-09T00:26:17.892Z,12.5
2023-05-09T00:27:24.390Z,12.4
2023-05-09T00:28:31.584Z,12.4
2023-05-09T00:29:38.806Z,12.4
2023-05-09T00:30:45.801Z,12.4
2023-05-09T00:31:52.885Z,12.4
2023-05-09T00:34:06.559Z,12.3
2023-05-09T00:35:13.989Z,12.4
2023-05-09T00:36:20.755Z,12.4
2023-05-09T00:37:27.900Z,12.4
2023-05-09T00:38:34.482Z,12.3
2023-05-09T00:39:41.544Z,12.3
2023-05-09T00:40:48.834Z,12.3
2023-05-09T00:41:55.791Z,12.3
2023-05-09T00:43:02.831Z,12.3
2023-05-09T00:44:10.180Z,12.3
2023-05-09T00:45:21.435Z,12.3
2023-05-09T00:46:23.718Z,12.3
2023-05-09T00:47:30.789Z,12.3
2023-05-09T00:48:37.861Z,12.3
2023-05-09T00:49:44.973Z,12.3
2023-05-09T00:50:53.851Z,12.3
2023-05-09T00:51:58.729Z,12.2
2023-05-09T00:53:05.776Z,12.2
2023-05-09T00:54:12.930Z,12.2
2023-05-09T00:55:19.427Z,12.3
2023-05-09T00:56:26.601Z,12.2
2023-05-09T00:57:33.716Z,12.2
2023-05-09T00:58:40.855Z,12.2
2023-05-09T00:59:47.939Z,12.2
2023-05-09T01:00:55.045Z,12.2
2023-05-09T01:02:01.541Z,12.2
2023-05-09T01:03:08.899Z,12.2
2023-05-09T01:04:15.837Z,12.2
2023-05-09T01:05:22.860Z,12.2
2023-05-09T01:06:30.019Z,12.2
2023-05-09T01:07:36.583Z,12.2
2023-05-09T01:08:43.660Z,12.2
2023-05-09T01:09:50.786Z,12.2
2023-05-09T01:10:57.897Z,12.2
2023-05-09T01:12:05.057Z,12.2
2023-05-09T01:13:11.646Z,12.2
2023-05-09T01:14:18.760Z,12.2
2023-05-09T01:15:25.811Z,12.2
2023-05-09T01:16:32.916Z,12.2
2023-05-09T01:17:39.534Z,12.2
2023-05-09T01:18:46.635Z,12.1
2023-05-09T01:19:54.202Z,12.2
2023-05-09T01:21:00.813Z,12.2
2023-05-09T01:22:07.972Z,12.1
2023-05-09T01:24:21.630Z,12.1
2023-05-09T01:25:28.709Z,12.1
2023-05-09T01:26:35.858Z,12.1
2023-05-09T01:27:42.974Z,12.1
2023-05-09T01:28:49.520Z,12
2023-05-09T01:29:56.605Z,12
2023-05-09T01:31:03.704Z,12
2023-05-09T01:32:12.612Z,12
2023-05-09T01:33:17.952Z,12
2023-05-09T01:34:24.525Z,12
2023-05-09T01:35:31.587Z,12
2023-05-09T01:36:38.760Z,12
2023-05-09T01:37:45.827Z,12
2023-05-09T01:38:52.933Z,11.9
2023-05-09T01:39:59.553Z,11.9
2023-05-09T01:41:06.620Z,11.9
2023-05-09T01:42:13.754Z,11.9
2023-05-09T01:43:20.829Z,11.9
2023-05-09T01:44:27.942Z,11.9
2023-05-09T01:45:34.502Z,11.9
2023-05-09T01:46:41.645Z,11.9
2023-05-09T01:47:48.785Z,11.9
2023-05-09T01:48:55.882Z,11.8
2023-05-09T01:50:02.919Z,11.8
2023-05-09T01:51:09.562Z,11.8
2023-05-09T01:52:16.710Z,11.8
2023-05-09T01:53:23.785Z,11.8
2023-05-09T01:54:30.881Z,11.8
2023-05-09T01:55:37.997Z,11.7
2023-05-09T01:56:44.553Z,11.7
2023-05-09T01:57:51.620Z,11.7
2023-05-09T01:58:58.757Z,11.7
2023-05-09T02:00:05.874Z,11.7
2023-05-09T02:01:13.044Z,11.6
2023-05-09T02:02:19.618Z,11.6
2023-05-09T02:03:26.733Z,11.6
2023-05-09T02:04:33.815Z,11.6
2023-05-09T02:05:40.853Z,11.6
2023-05-09T02:06:47.961Z,11.6
2023-05-09T02:07:54.560Z,11.6
2023-05-09T02:09:01.634Z,11.6
2023-05-09T02:10:08.804Z,11.6
2023-05-09T02:12:22.955Z,11.5
2023-05-09T02:13:29.613Z,11.5
2023-05-09T02:14:36.722Z,11.5
2023-05-09T02:15:43.817Z,11.5
2023-05-09T02:16:50.874Z,11.4
2023-05-09T02:17:57.537Z,11.4
2023-05-09T02:19:04.566Z,11.4
2023-05-09T02:20:11.667Z,11.4
2023-05-09T02:21:18.822Z,11.4
2023-05-09T02:22:25.977Z,11.4
2023-05-09T02:23:32.496Z,11.4
2023-05-09T02:24:39.600Z,11.4
2023-05-09T02:25:46.715Z,11.4
2023-05-09T02:28:00.894Z,11.4
2023-05-09T02:29:07.524Z,11.4
2023-05-09T02:30:14.586Z,11.3
2023-05-09T02:31:21.696Z,11.3
2023-05-09T02:32:28.837Z,11.3
2023-05-09T02:33:35.965Z,11.3
2023-05-09T02:34:43.051Z,11.3
2023-05-09T02:35:49.583Z,11.3
2023-05-09T02:36:56.762Z,11.3
2023-05-09T02:38:03.903Z,11.3
2023-05-09T02:39:10.957Z,11.3
2023-05-09T02:40:17.543Z,11.3
2023-05-09T02:41:24.716Z,11.2
2023-05-09T02:42:31.701Z,11.3
2023-05-09T02:43:38.823Z,11.2
2023-05-09T02:44:45.978Z,11.2
2023-05-09T02:45:52.542Z,11.2
2023-05-09T02:46:59.644Z,11.2
2023-05-09T02:48:08.993Z,11.2
2023-05-09T02:49:22.806Z,11.2
2023-05-09T02:50:20.980Z,11.2
2023-05-09T02:51:27.553Z,11.2
2023-05-09T02:52:34.725Z,11.3
2023-05-09T02:53:41.762Z,11.2
2023-05-09T02:54:48.854Z,11.3
2023-05-09T02:55:55.939Z,11.3
2023-05-09T02:57:02.506Z,11.2
2023-05-09T02:58:14.530Z,11.2
2023-05-09T02:59:16.702Z,11.3
2023-05-09T03:00:23.819Z,11.2
2023-05-09T03:01:30.966Z,11.2
2023-05-09T03:02:37.728Z,11.2
2023-05-09T03:03:44.775Z,11.2
2023-05-09T03:04:51.728Z,11.2
2023-05-09T03:05:58.840Z,11.3
2023-05-09T03:07:05.998Z,11.2
2023-05-09T03:08:12.491Z,11.3
2023-05-09T03:09:19.685Z,11.2
2023-05-09T03:10:26.789Z,11.2
2023-05-09T03:11:33.856Z,11.3
2023-05-09T03:12:40.962Z,11.2
2023-05-09T03:13:47.583Z,11.2
2023-05-09T03:14:54.638Z,11.2
2023-05-09T03:16:01.728Z,11.2
2023-05-09T03:17:08.849Z,11.3
2023-05-09T03:18:15.970Z,11.2
2023-05-09T03:19:22.614Z,11.2
2023-05-09T03:20:29.730Z,11.2
2023-05-09T03:21:36.783Z,11.2
2023-05-09T03:22:43.858Z,11.2
2023-05-09T03:23:50.993Z,11.3
2023-05-09T03:24:57.554Z,11.3
2023-05-09T03:26:04.721Z,11.2
2023-05-09T03:27:11.732Z,11.2
2023-05-09T03:28:18.879Z,11.2
2023-05-09T03:29:25.519Z,11.2
2023-05-09T03:31:39.767Z,11.2
2023-05-09T03:32:46.895Z,11.2
2023-05-09T03:33:53.905Z,11.2
2023-05-09T03:35:00.446Z,11.2
2023-05-09T03:36:07.595Z,11.2
2023-05-09T03:37:14.723Z,11.2
2023-05-09T03:38:21.792Z,11.2
2023-05-09T03:40:35.604Z,11.1
2023-05-09T03:41:42.602Z,11.1
2023-05-09T03:42:49.688Z,11.1
2023-05-09T03:43:56.786Z,11.1
2023-05-09T03:45:03.895Z,11.1
2023-05-09T03:46:11.081Z,11.1
2023-05-09T03:47:17.642Z,11.1
2023-05-09T03:48:24.720Z,11.1
2023-05-09T03:49:32.325Z,11.1
2023-05-09T03:50:38.895Z,11.1
2023-05-09T03:51:45.483Z,11.1
2023-05-09T03:52:52.628Z,11
2023-05-09T03:53:59.733Z,11
2023-05-09T03:55:06.795Z,11.1
2023-05-09T03:56:13.909Z,11.1
2023-05-09T03:57:20.483Z,11
2023-05-09T03:58:27.598Z,11
2023-05-09T03:59:34.807Z,11
2023-05-09T04:00:41.838Z,11
2023-05-09T04:01:49.017Z,11
2023-05-09T04:02:55.604Z,11
2023-05-09T04:04:02.668Z,11
2023-05-09T04:05:09.724Z,11
2023-05-09T04:06:16.944Z,11
2023-05-09T04:07:23.944Z,11
2023-05-09T04:08:30.515Z,11
2023-05-09T04:09:37.618Z,11
2023-05-09T04:10:44.985Z,11
2023-05-09T04:11:51.843Z,11
2023-05-09T04:12:58.962Z,11
2023-05-09T04:14:05.575Z,11
2023-05-09T04:15:12.796Z,11
2023-05-09T04:16:20.301Z,11
2023-05-09T04:17:26.394Z,11
2023-05-09T04:18:33.940Z,11
2023-05-09T04:19:40.705Z,11
2023-05-09T04:20:47.606Z,11
2023-05-09T04:21:54.753Z,11
2023-05-09T04:23:01.845Z,11
2023-05-09T04:24:08.951Z,11
2023-05-09T04:25:15.698Z,11
2023-05-09T04:26:22.706Z,11
2023-05-09T04:27:29.762Z,11
2023-05-09T04:28:36.887Z,11
2023-05-09T04:29:43.955Z,11
2023-05-09T04:30:50.615Z,11
2023-05-09T04:31:57.705Z,11.1
2023-05-09T04:33:04.890Z,11.1
2023-05-09T04:35:20.676Z,11.1
2023-05-09T04:36:25.563Z,11.1
2023-05-09T04:37:32.647Z,11.1
2023-05-09T04:38:39.786Z,11.1
2023-05-09T04:39:46.906Z,11.1
2023-05-09T04:40:53.986Z,11.1
2023-05-09T04:42:00.602Z,11.1
2023-05-09T04:43:07.808Z,11.1
2023-05-09T04:44:14.247Z,11.1
2023-05-09T04:45:21.915Z,11.1
2023-05-09T04:46:28.527Z,11.1
2023-05-09T04:47:35.712Z,11.1
2023-05-09T04:48:42.707Z,11.1
2023-05-09T04:49:49.851Z,11.1
2023-05-09T04:50:56.875Z,11.1
2023-05-09T04:52:03.465Z,11.1
2023-05-09T04:53:10.584Z,11.1
2023-05-09T04:54:17.718Z,11.1
2023-05-09T04:55:24.823Z,11.1
2023-05-09T04:56:31.908Z,11.1
2023-05-09T04:57:39.032Z,11.1
2023-05-09T04:58:45.646Z,11.2
2023-05-09T04:59:52.694Z,11.2
2023-05-09T05:00:59.796Z,11.2
2023-05-09T05:02:06.961Z,11.2
2023-05-09T05:03:13.510Z,11.2
2023-05-09T05:04:20.611Z,11.3
2023-05-09T05:05:28.057Z,11.3
2023-05-09T05:06:34.807Z,11.3
2023-05-09T05:08:48.570Z,11.3
2023-05-09T05:09:55.655Z,11.3
2023-05-09T05:11:02.674Z,11.3
2023-05-09T05:12:12.758Z,11.3
2023-05-09T05:13:16.982Z,11.3
2023-05-09T05:14:23.495Z,11.4
2023-05-09T05:15:30.630Z,11.4
2023-05-09T05:16:37.789Z,11.4
2023-05-09T05:17:44.875Z,11.4
2023-05-09T05:18:51.890Z,11.5
2023-05-09T05:19:58.545Z,11.4
2023-05-09T05:21:05.668Z,11.5
2023-05-09T05:22:12.684Z,11.5
2023-05-09T05:23:19.838Z,11.5
2023-05-09T05:24:26.984Z,11.5
2023-05-09T05:25:33.563Z,11.5
2023-05-09T05:26:40.616Z,11.5
2023-05-09T05:27:47.747Z,11.5
2023-05-09T05:28:54.863Z,11.5
2023-05-09T05:30:02.015Z,11.5
2023-05-09T05:31:08.588Z,11.5
2023-05-09T05:32:15.620Z,11.6
2023-05-09T05:33:22.748Z,11.6
2023-05-09T05:34:29.825Z,11.6
2023-05-09T05:35:36.948Z,11.6
2023-05-09T05:36:43.569Z,11.6
2023-05-09T05:38:57.785Z,11.6
2023-05-09T05:40:04.370Z,11.6
2023-05-09T05:41:11.938Z,11.6
2023-05-09T05:42:18.520Z,11.6
2023-05-09T05:45:39.870Z,11.6
2023-05-09T05:59:03.592Z,11.8
2023-05-09T06:00:10.666Z,11.8
2023-05-09T06:01:17.764Z,11.8
2023-05-09T06:02:25.013Z,11.8
2023-05-09T06:03:31.541Z,11.9
2023-05-09T06:04:38.617Z,11.9
2023-05-09T06:05:45.706Z,11.9
2023-05-09T06:06:52.768Z,11.9
2023-05-09T06:07:59.888Z,11.9
2023-05-09T06:09:07.082Z,12
2023-05-09T06:10:13.641Z,12
2023-05-09T06:11:20.693Z,12
2023-05-09T06:12:28.133Z,12.1
2023-05-09T06:13:34.891Z,12
2023-05-09T06:14:41.474Z,12.1
2023-05-09T06:15:48.569Z,12.1
2023-05-09T06:16:55.782Z,12.1
2023-05-09T06:18:02.781Z,12.1
2023-05-09T06:19:09.914Z,12.1
2023-05-09T06:20:16.522Z,12.2
2023-05-09T06:21:23.090Z,12.2
2023-05-09T06:22:30.660Z,12.2
2023-05-09T06:23:40.530Z,12.2
2023-05-09T06:24:44.925Z,12.2
2023-05-09T06:25:51.482Z,12.1
2023-05-09T06:26:58.633Z,12.1
2023-05-09T06:28:05.701Z,12.1
2023-05-09T06:29:12.827Z,12.1
2023-05-09T06:30:26.325Z,12.1
2023-05-09T06:31:27.089Z,12.1
2023-05-09T06:32:33.698Z,12
2023-05-09T06:33:40.675Z,12
2023-05-09T06:34:47.858Z,12.1
2023-05-09T06:37:01.501Z,12
2023-05-09T06:38:08.649Z,12
2023-05-09T06:39:15.705Z,12
2023-05-09T06:40:22.847Z,12
2023-05-09T06:42:36.531Z,12.1
2023-05-09T06:43:43.711Z,12.1
2023-05-09T06:44:50.740Z,12.1
2023-05-09T06:45:57.910Z,12.1
2023-05-09T06:47:04.933Z,12.1
2023-05-09T06:48:11.525Z,12.1
2023-05-09T06:49:18.649Z,12.1
2023-05-09T06:50:25.739Z,12.1
2023-05-09T06:51:32.832Z,12.2
2023-05-09T06:52:39.937Z,12.2
2023-05-09T06:53:46.574Z,12.3
2023-05-09T06:54:53.621Z,12.4
2023-05-09T06:56:00.729Z,12.4
2023-05-09T06:57:07.838Z,12.3
2023-05-09T06:58:15.000Z,12.4
2023-05-09T06:59:21.566Z,12.4
2023-05-09T07:00:29.170Z,12.3
2023-05-09T07:01:35.804Z,12.3
2023-05-09T07:02:42.660Z,12.3
2023-05-09T07:03:49.437Z,12.3
2023-05-09T07:04:56.660Z,12.3
2023-05-09T07:06:03.661Z,12.3
2023-05-09T07:07:10.722Z,12.2
2023-05-09T07:08:17.866Z,12.2
2023-05-09T07:09:24.537Z,12.2
2023-05-09T07:10:31.565Z,12.2
2023-05-09T07:11:38.684Z,12.2
2023-05-09T07:12:45.816Z,12.2
2023-05-09T07:13:52.830Z,12.2
2023-05-09T07:14:59.492Z,12.2
2023-05-09T07:16:06.723Z,12.2
2023-05-09T07:17:23.006Z,12.2
2023-05-09T07:18:20.769Z,12.1
2023-05-09T07:19:27.877Z,12.1
2023-05-09T07:20:34.962Z,12.2
2023-05-09T07:21:41.598Z,12.2
2023-05-09T07:22:48.717Z,12.2
2023-05-09T07:23:55.786Z,12.1
2023-05-09T07:25:02.902Z,12.2
2023-05-09T07:26:09.488Z,12.2
2023-05-09T07:27:16.565Z,12.2
2023-05-09T07:28:23.739Z,12.1
2023-05-09T07:29:30.750Z,12.1
2023-05-09T07:30:37.900Z,12.2
2023-05-09T07:31:44.537Z,12.2
2023-05-09T07:32:51.648Z,12.1
2023-05-09T07:33:58.170Z,12.2
2023-05-09T07:33:58.718Z,12.2
2023-05-09T07:35:05.766Z,12.2
2023-05-09T07:36:12.372Z,12.3
2023-05-09T07:37:19.527Z,12.3
2023-05-09T07:38:26.584Z,12.3
2023-05-09T07:39:33.729Z,12.3
2023-05-09T07:40:40.766Z,12.3
2023-05-09T07:41:48.836Z,12.2
2023-05-09T07:42:55.129Z,12.2
2023-05-09T07:44:01.119Z,12.3
2023-05-09T07:46:15.898Z,12.3
2023-05-09T07:47:22.941Z,12.3
2023-05-09T07:48:29.521Z,12.3
2023-05-09T07:49:36.631Z,12.3
2023-05-09T07:50:43.665Z,12.3
2023-05-09T07:51:50.777Z,12.4
2023-05-09T07:52:57.929Z,12.4
2023-05-09T07:54:04.493Z,12.4
2023-05-09T07:55:11.577Z,12.4
2023-05-09T07:56:18.745Z,12.5
2023-05-09T07:57:25.801Z,12.4
2023-05-09T07:58:32.890Z,12.4
2023-05-09T07:59:39.574Z,12.5
2023-05-09T08:00:46.644Z,12.4
2023-05-09T08:01:53.772Z,12.5
2023-05-09T08:03:01.296Z,12.6
2023-05-09T08:04:08.545Z,12.6
2023-05-09T08:05:14.698Z,12.6
2023-05-09T08:06:21.601Z,12.7
2023-05-09T08:07:28.738Z,12.8
2023-05-09T08:08:37.695Z,12.9
2023-05-09T08:09:42.562Z,12.9
2023-05-09T08:10:50.399Z,13
2023-05-09T08:11:56.603Z,13
2023-05-09T08:13:03.812Z,13.1
2023-05-09T08:14:10.344Z,13.1
2023-05-09T08:14:10.795Z,13.1
2023-05-09T08:15:17.723Z,13.1
2023-05-09T08:16:24.640Z,13.3
2023-05-09T08:17:31.679Z,13.3
2023-05-09T08:18:38.231Z,13.4
2023-05-09T08:18:38.761Z,13.4
2023-05-09T08:19:45.902Z,13.4
2023-05-09T08:20:52.444Z,13.6
2023-05-09T08:21:59.552Z,13.7
2023-05-09T08:23:06.195Z,13.6
2023-05-09T08:23:06.642Z,13.6
2023-05-09T08:24:13.743Z,13.6
2023-05-09T08:26:27.457Z,13.6
2023-05-09T08:27:34.529Z,13.8
2023-05-09T08:27:34.569Z,13.8
2023-05-09T08:28:41.674Z,14
2023-05-09T08:29:48.819Z,14
2023-05-09T08:30:55.912Z,14.1
2023-05-09T08:32:02.448Z,14.1
2023-05-09T08:32:02.489Z,14.1
2023-05-09T08:33:09.601Z,14.1
2023-05-09T08:34:16.655Z,14
2023-05-09T08:35:23.809Z,13.9
2023-05-09T08:36:30.378Z,13.9
2023-05-09T08:37:37.524Z,13.9
2023-05-09T08:38:44.611Z,14
2023-05-09T08:39:51.688Z,14.1
2023-05-09T08:40:58.837Z,14.2
2023-05-09T08:42:05.897Z,14.3
2023-05-09T08:43:12.483Z,14.4
2023-05-09T08:45:26.727Z,14.6
2023-05-09T08:46:33.790Z,14.6
2023-05-09T08:47:40.896Z,14.6
2023-05-09T08:48:47.466Z,14.7
2023-05-09T08:49:54.589Z,14.7
2023-05-09T08:49:54.867Z,14.7
2023-05-09T08:51:01.695Z,14.7
2023-05-09T08:52:08.790Z,14.6
2023-05-09T08:53:15.896Z,14.6
2023-05-09T08:54:22.994Z,14.8
2023-05-09T08:55:29.618Z,14.9
2023-05-09T08:56:36.679Z,15
2023-05-09T08:57:43.775Z,15.2
2023-05-09T08:58:50.877Z,15.3
2023-05-09T08:59:57.454Z,15.4
2023-05-09T09:01:04.596Z,15.4
2023-05-09T09:02:13.030Z,15.3
2023-05-09T09:03:18.273Z,15.2
2023-05-09T09:03:18.815Z,15.2
2023-05-09T09:04:25.410Z,15.2
2023-05-09T09:05:41.234Z,15.3
2023-05-09T09:07:47.284Z,15.6
2023-05-09T09:08:53.811Z,15.7
2023-05-09T09:10:00.885Z,15.9
2023-05-09T09:11:07.495Z,16
2023-05-09T09:12:14.602Z,16.1
2023-05-09T09:13:21.779Z,15.9
2023-05-09T09:14:28.810Z,15.8
2023-05-09T09:15:35.973Z,15.5
2023-05-09T09:16:42.586Z,15.4
2023-05-09T09:16:42.615Z,15.4
2023-05-09T09:17:49.674Z,15.4
2023-05-09T09:18:58.575Z,15.5
2023-05-09T09:20:03.783Z,15.7
2023-05-09T09:21:10.389Z,15.7
2023-05-09T09:22:17.645Z,15.7
2023-05-09T09:23:24.607Z,15.7
2023-05-09T09:24:31.858Z,15.7
2023-05-09T09:25:38.848Z,15.7
2023-05-09T09:26:45.428Z,15.7
2023-05-09T09:27:54.053Z,15.6
2023-05-09T09:28:59.654Z,15.6
2023-05-09T09:30:06.733Z,15.6
2023-05-09T09:31:15.389Z,15.5
2023-05-09T09:32:20.429Z,15.4
2023-05-09T09:33:27.547Z,15.3
2023-05-09T09:34:34.090Z,15.3
2023-05-09T09:34:34.630Z,15.3
2023-05-09T09:35:41.754Z,15
2023-05-09T09:36:48.826Z,15
2023-05-09T09:37:55.437Z,14.9
2023-05-09T09:39:01.996Z,15
2023-05-09T09:39:02.527Z,15
2023-05-09T09:40:09.651Z,15.2
2023-05-09T09:41:16.781Z,15.3
2023-05-09T09:42:23.822Z,15.5
2023-05-09T09:43:30.409Z,15.6
2023-05-09T09:43:30.444Z,15.6
2023-05-09T09:44:37.560Z,15.7
2023-05-09T09:45:44.684Z,15.8
2023-05-09T09:46:51.821Z,15.9
2023-05-09T09:49:10.759Z,15.7
2023-05-09T09:50:15.301Z,15.7
2023-05-09T09:51:19.711Z,15.8
2023-05-09T09:52:26.781Z,15.9
2023-05-09T09:53:33.888Z,16
2023-05-09T09:54:40.450Z,16.1
2023-05-09T09:55:47.626Z,16.2
2023-05-09T09:56:54.183Z,16.2
2023-05-09T09:56:54.984Z,16.2
2023-05-09T09:58:01.734Z,16.2
2023-05-09T09:59:08.840Z,16.2
2023-05-09T10:00:15.667Z,16.1
2023-05-09T10:01:22.587Z,16.3
2023-05-09T10:02:30.754Z,16.4
2023-05-09T10:03:37.867Z,16.5
2023-05-09T10:04:43.933Z,16.6
2023-05-09T10:05:50.472Z,16.6
2023-05-09T10:08:04.700Z,16.9
2023-05-09T10:10:19.060Z,17
2023-05-09T10:11:26.489Z,17
2023-05-09T10:12:32.561Z,17
2023-05-09T10:13:39.672Z,17
2023-05-09T10:14:46.785Z,17
2023-05-09T10:15:54.200Z,17
2023-05-09T10:17:00.539Z,16.9
2023-05-09T10:18:07.790Z,16.9
2023-05-09T10:19:14.737Z,16.9
2023-05-09T10:20:21.816Z,16.9
2023-05-09T10:21:29.392Z,17
2023-05-09T10:22:35.502Z,17
2023-05-09T10:23:42.588Z,17
2023-05-09T10:24:49.695Z,16.9
2023-05-09T10:25:56.837Z,16.9
2023-05-09T10:27:03.358Z,16.7
2023-05-09T10:28:10.497Z,16.7
2023-05-09T10:28:10.512Z,16.7
2023-05-09T10:30:25.740Z,16.7
2023-05-09T10:31:32.855Z,16.6
2023-05-09T10:32:38.428Z,16.6
2023-05-09T10:33:45.548Z,16.6
2023-05-09T10:34:52.600Z,16.4
2023-05-09T10:35:59.749Z,16.4
2023-05-09T10:37:06.846Z,16.4
2023-05-09T10:37:06.936Z,16.4
2023-05-09T10:38:13.418Z,16.3
2023-05-09T10:39:20.494Z,16.3
2023-05-09T10:40:27.695Z,16.4
2023-05-09T10:41:34.901Z,16.3
2023-05-09T10:42:41.808Z,16.3
2023-05-09T10:43:48.461Z,16.3
2023-05-09T10:44:55.589Z,16.3
2023-05-09T10:46:02.065Z,16.2
2023-05-09T10:46:02.598Z,16.2
2023-05-09T10:47:10.422Z,16.1
2023-05-09T10:49:23.443Z,16
2023-05-09T10:50:30.489Z,16
2023-05-09T10:51:37.632Z,16
2023-05-09T10:52:44.740Z,16
2023-05-09T10:53:51.804Z,16.1
2023-05-09T10:54:58.430Z,16
2023-05-09T10:54:58.455Z,16
2023-05-09T10:56:05.552Z,16
2023-05-09T10:57:19.818Z,16
2023-05-09T10:58:19.809Z,16.1
2023-05-09T10:59:26.320Z,16
2023-05-09T10:59:27.370Z,16
2023-05-09T11:00:33.501Z,16
2023-05-09T11:01:40.555Z,16.1
2023-05-09T11:02:47.736Z,16.1
2023-05-09T11:03:54.323Z,16.1
2023-05-09T11:03:54.871Z,16.1
2023-05-09T11:05:01.817Z,16.2
2023-05-09T11:06:08.447Z,16.3
2023-05-09T11:07:15.552Z,16.3
2023-05-09T11:08:22.672Z,16.3
2023-05-09T11:08:22.680Z,16.3
2023-05-09T11:09:29.763Z,16.3
2023-05-09T11:10:36.365Z,16.2
2023-05-09T11:11:43.532Z,16.2
2023-05-09T11:12:50.073Z,16.2
2023-05-09T11:12:50.596Z,16.2
2023-05-09T11:13:57.646Z,16.2
2023-05-09T11:15:05.403Z,16.2
2023-05-09T11:16:11.417Z,16.2
2023-05-09T11:17:18.448Z,16.3
2023-05-09T11:17:18.490Z,16.3
2023-05-09T11:18:26.596Z,16.3
2023-05-09T11:19:33.724Z,16.3
2023-05-09T11:20:39.828Z,16.2
2023-05-09T11:21:46.362Z,16
2023-05-09T11:21:46.408Z,16
2023-05-09T11:22:53.442Z,16
2023-05-09T11:24:00.545Z,16
2023-05-09T11:25:07.692Z,16
2023-05-09T11:26:14.228Z,16.1
2023-05-09T11:26:14.764Z,16.1
2023-05-09T11:27:21.350Z,16
2023-05-09T11:28:28.465Z,16
2023-05-09T11:29:35.587Z,16
2023-05-09T11:30:52.074Z,15.9
2023-05-09T11:30:52.078Z,15.9
2023-05-09T11:32:56.495Z,15.7
2023-05-09T11:34:03.465Z,15.7
2023-05-09T11:35:10.218Z,15.7
2023-05-09T11:35:10.545Z,15.7
2023-05-09T11:36:17.688Z,15.7
2023-05-09T11:38:33.144Z,15.7
2023-05-09T11:39:38.598Z,15.7
2023-05-09T11:39:38.606Z,15.7
2023-05-09T11:40:45.616Z,15.7
2023-05-09T11:41:52.707Z,15.7
2023-05-09T11:42:59.804Z,15.6
2023-05-09T11:44:06.396Z,15.6
2023-05-09T11:44:06.425Z,15.6
2023-05-09T11:45:13.828Z,15.6
2023-05-09T11:48:34.386Z,15.3
2023-05-09T11:48:34.817Z,15.3
2023-05-09T11:53:02.735Z,15.3
2023-05-09T11:54:09.812Z,15.3
2023-05-09T11:55:16.597Z,15.3
2023-05-09T11:59:44.953Z,15.3
2023-05-09T12:00:51.414Z,15.2
2023-05-09T12:01:58.561Z,15.3
2023-05-09T12:03:05.672Z,15.3
2023-05-09T12:04:12.717Z,15.4
2023-05-09T12:05:20.134Z,15.3
2023-05-09T12:06:26.442Z,15.3
2023-05-09T12:06:27.428Z,15.3
2023-05-09T12:07:34.500Z,15.2
2023-05-09T12:08:40.625Z,15.2
2023-05-09T12:09:47.742Z,15.2
2023-05-09T12:10:54.348Z,15.2
2023-05-09T12:12:01.453Z,15.1
2023-05-09T12:13:08.631Z,15.2
2023-05-09T12:14:15.600Z,15.2
2023-05-09T12:15:22.467Z,15.3
2023-05-09T12:15:22.694Z,15.3
2023-05-09T12:16:29.464Z,15.4
2023-05-09T12:17:36.453Z,15.4
2023-05-09T12:18:44.057Z,15.4
2023-05-09T12:19:50.601Z,15.5
2023-05-09T12:20:57.780Z,15.6
2023-05-09T12:22:04.340Z,15.6
2023-05-09T12:23:11.415Z,15.5
2023-05-09T12:24:18.029Z,15.6
2023-05-09T12:24:18.526Z,15.6
2023-05-09T12:25:26.744Z,15.6
2023-05-09T12:26:33.729Z,15.6
2023-05-09T12:27:39.355Z,15.7
2023-05-09T12:28:45.934Z,15.6
2023-05-09T12:28:46.480Z,15.6
2023-05-09T12:29:54.936Z,15.6
2023-05-09T12:31:00.669Z,15.6
2023-05-09T12:32:07.752Z,15.6
2023-05-09T12:34:21.466Z,15.6
2023-05-09T12:35:28.524Z,15.5
2023-05-09T12:36:35.805Z,15.6
2023-05-09T12:37:42.210Z,15.6
2023-05-09T12:37:42.724Z,15.6
2023-05-09T12:38:49.368Z,15.5
2023-05-09T12:39:56.456Z,15.5
2023-05-09T12:41:03.932Z,15.5
2023-05-09T12:42:13.036Z,15.4
2023-05-09T12:42:13.055Z,15.4
2023-05-09T12:43:17.797Z,15.3
2023-05-09T12:44:25.382Z,15.3
2023-05-09T12:45:31.525Z,15.3
2023-05-09T12:46:38.113Z,15.3
2023-05-09T12:46:38.619Z,15.3
2023-05-09T12:47:45.800Z,15.4
2023-05-09T12:48:52.264Z,15.4
2023-05-09T12:48:52.759Z,15.4
2023-05-09T12:49:59.390Z,15.4
2023-05-09T12:51:06.137Z,15.4
2023-05-09T12:51:06.481Z,15.4
2023-05-09T12:52:13.569Z,15.3
2023-05-09T12:53:20.716Z,15.3
2023-05-09T12:54:28.841Z,15.3
2023-05-09T12:55:35.401Z,15.3
2023-05-09T12:56:41.493Z,15.3
2023-05-09T12:57:48.608Z,15.3
2023-05-09T12:58:55.689Z,15.2
2023-05-09T13:00:02.271Z,15.2
2023-05-09T13:00:02.798Z,15.2
2023-05-09T13:01:09.418Z,15.2
2023-05-09T13:02:16.601Z,15.2
2023-05-09T13:03:24.651Z,15.2
2023-05-09T13:04:30.242Z,15.2
2023-05-09T13:04:30.720Z,15.2
2023-05-09T13:06:44.381Z,15.2
2023-05-09T13:07:51.470Z,15.2
2023-05-09T13:08:58.090Z,15.1
2023-05-09T13:08:58.629Z,15.1
2023-05-09T13:10:05.770Z,15.2
2023-05-09T13:11:16.754Z,15.1
2023-05-09T13:12:19.384Z,15.2
2023-05-09T13:13:27.638Z,15.2
2023-05-09T13:15:40.724Z,15.2
2023-05-09T13:16:47.930Z,15.1
2023-05-09T13:17:53.976Z,15.1
2023-05-09T13:17:54.437Z,15.1
2023-05-09T13:19:01.513Z,15.1
2023-05-09T13:20:08.653Z,15.1
2023-05-09T13:21:15.748Z,15.1
2023-05-09T13:22:23.327Z,15.1
2023-05-09T13:23:29.406Z,15
2023-05-09T13:24:36.530Z,15
2023-05-09T13:25:43.591Z,15
2023-05-09T13:26:50.242Z,15
2023-05-09T13:26:50.703Z,15
2023-05-09T13:27:57.435Z,15
2023-05-09T13:29:04.447Z,14.9
2023-05-09T13:30:11.557Z,14.9
2023-05-09T13:31:18.831Z,14.9
2023-05-09T13:32:26.807Z,15
2023-05-09T13:33:32.427Z,15
2023-05-09T13:34:39.460Z,15
2023-05-09T13:35:47.773Z,15
2023-05-09T13:35:47.816Z,15
2023-05-09T13:36:53.653Z,15
2023-05-09T13:38:00.704Z,15
2023-05-09T13:39:07.377Z,15
2023-05-09T13:40:14.655Z,15
2023-05-09T13:41:21.513Z,15
2023-05-09T13:42:29.655Z,15.1
2023-05-09T13:43:35.758Z,15.1
2023-05-09T13:44:42.297Z,15.1
2023-05-09T13:44:42.329Z,15.1
2023-05-09T13:45:49.491Z,15
2023-05-09T13:46:56.570Z,15
2023-05-09T13:48:03.692Z,15.1
2023-05-09T13:49:10.776Z,15
2023-05-09T13:50:17.640Z,15.1
2023-05-09T13:51:24.437Z,15
2023-05-09T13:52:31.562Z,14.9
2023-05-09T13:53:39.257Z,14.9
2023-05-09T13:53:39.269Z,14.9
2023-05-09T13:54:45.756Z,14.9
2023-05-09T13:56:59.497Z,14.9
2023-05-09T13:58:06.604Z,14.9
2023-05-09T13:59:13.645Z,14.9
2023-05-09T14:00:21.088Z,14.8
2023-05-09T14:01:28.507Z,14.8
2023-05-09T14:02:33.913Z,14.8
2023-05-09T14:02:34.475Z,14.8
2023-05-09T14:03:41.620Z,14.9
2023-05-09T14:04:48.639Z,14.9
2023-05-09T14:05:55.805Z,14.9
2023-05-09T14:07:02.350Z,14.9
2023-05-09T14:08:09.463Z,15
2023-05-09T14:09:16.590Z,14.9
2023-05-09T14:10:24.667Z,14.9
2023-05-09T14:11:31.855Z,14.9
2023-05-09T14:12:37.452Z,15
2023-05-09T14:13:44.455Z,15
2023-05-09T14:14:51.603Z,14.9
2023-05-09T14:15:58.888Z,14.9
2023-05-09T14:17:05.814Z,14.9
2023-05-09T14:18:15.935Z,14.9
2023-05-09T14:19:19.496Z,14.9
2023-05-09T14:20:27.339Z,14.8
2023-05-09T14:21:33.681Z,14.7
2023-05-09T14:22:40.279Z,14.8
2023-05-09T14:23:47.429Z,14.9
2023-05-09T14:24:54.521Z,14.9
2023-05-09T14:26:02.134Z,15
2023-05-09T14:27:08.754Z,15
2023-05-09T14:28:15.338Z,15
2023-05-09T14:29:22.413Z,15
2023-05-09T14:30:30.567Z,15
2023-05-09T14:31:37.710Z,15
2023-05-09T14:32:43.733Z,15
2023-05-09T14:34:57.410Z,15
2023-05-09T14:36:04.479Z,15
2023-05-09T14:38:18.734Z,15
2023-05-09T14:39:26.443Z,15
2023-05-09T14:40:32.387Z,14.8
2023-05-09T14:41:39.674Z,14.7
2023-05-09T14:42:46.599Z,14.7
2023-05-09T14:43:53.720Z,14.6
2023-05-09T14:45:00.316Z,14.6
2023-05-09T14:46:07.500Z,14.6
2023-05-09T14:47:14.497Z,14.7
2023-05-09T14:48:21.593Z,14.7
2023-05-09T14:49:29.802Z,14.8
2023-05-09T14:50:35.392Z,14.8
2023-05-09T14:51:42.419Z,14.9
2023-05-09T14:52:49.566Z,14.9
2023-05-09T14:53:56.688Z,14.9
2023-05-09T14:55:03.761Z,14.9
2023-05-09T14:56:10.326Z,14.9
2023-05-09T14:57:17.454Z,15
2023-05-09T14:58:25.529Z,15
2023-05-09T14:59:34.222Z,15
2023-05-09T15:00:38.776Z,15
2023-05-09T15:01:45.345Z,15
2023-05-09T15:02:52.520Z,15
2023-05-09T15:03:59.551Z,14.9
2023-05-09T15:05:06.644Z,14.9